createdAt,value
2023-03-13T00:02:33.354Z,6.15
2023-03-13T00:06:40.251Z,7.40
2023-03-13T00:10:43.733Z,6.40
2023-03-13T00:14:46.984Z,8.25
2023-03-13T00:18:51.967Z,7.53
2023-03-13T00:22:56.745Z,6.22
2023-03-13T00:27:03.341Z,8.40
2023-03-13T00:31:08.513Z,6.93
2023-03-13T00:35:11.602Z,7.85
2023-03-13T00:39:18.652Z,7.70
2023-03-13T00:43:21.752Z,7.32
2023-03-13T00:47:24.992Z,7.28
2023-03-13T00:51:29.081Z,7.78
2023-03-13T00:55:33.780Z,6.47
2023-03-13T00:59:36.990Z,6.10
2023-03-13T01:03:41.583Z,7.30
2023-03-13T01:07:45.028Z,8.13
2023-03-13T01:11:50.520Z,7.90
2023-03-13T01:15:53.749Z,7.65
2023-03-13T01:19:57.874Z,6.63
2023-03-13T01:24:01.333Z,7.28
2023-03-13T01:28:06.426Z,8.52
2023-03-13T01:32:09.515Z,6.88
2023-03-13T01:36:13.876Z,6.82
2023-03-13T01:40:17.114Z,8.23
2023-03-13T01:44:25.636Z,6.75
2023-03-13T01:48:37.023Z,6.85
2023-03-13T01:52:40.297Z,7.97
2023-03-13T01:56:48.762Z,7.43
2023-03-13T02:00:53.660Z,5.97
2023-03-13T02:05:00.417Z,7.47
2023-03-13T02:09:06.865Z,8.70
2023-03-13T02:13:14.251Z,6.85
2023-03-13T02:17:19.597Z,7.85
2023-03-13T02:21:36.275Z,8.57
2023-03-13T02:25:45.348Z,7.78
2023-03-13T02:29:48.888Z,7.85
2023-03-13T02:33:52.411Z,9.15
2023-03-13T02:37:59.072Z,8.20
2023-03-13T02:42:05.080Z,9.10
2023-03-13T02:46:11.645Z,8.45
2023-03-13T02:50:15.916Z,8.63
2023-03-13T02:54:22.804Z,7.88
2023-03-13T02:58:27.535Z,9.68
2023-03-13T03:02:30.740Z,7.82
2023-03-13T03:06:33.985Z,8.60
2023-03-13T03:10:38.322Z,9.48
2023-03-13T03:14:42.663Z,9.57
2023-03-13T03:18:46.319Z,9.05
2023-03-13T03:22:49.445Z,11.38
2023-03-13T03:26:52.675Z,13.68
2023-03-13T03:30:57.603Z,13.45
2023-03-13T03:35:00.952Z,8.65
2023-03-13T03:39:04.055Z,9.40
2023-03-13T03:43:07.745Z,7.82
2023-03-13T03:47:14.375Z,6.53
2023-03-13T03:51:17.870Z,6.63
2023-03-13T03:55:21.171Z,8.80
2023-03-13T03:59:24.609Z,7.05
2023-03-13T04:03:29.313Z,7.53
2023-03-13T04:07:32.556Z,7.55
2023-03-13T04:11:35.851Z,6.45
2023-03-13T04:15:39.948Z,7.15
2023-03-13T04:19:44.826Z,7.18
2023-03-13T04:23:48.041Z,6.00
2023-03-13T04:27:51.135Z,7.25
2023-03-13T04:31:54.336Z,8.50
2023-03-13T04:35:59.031Z,9.10
2023-03-13T04:40:03.067Z,8.77
2023-03-13T04:44:06.072Z,8.07
2023-03-13T04:48:09.453Z,7.47
2023-03-13T04:52:15.925Z,6.35
2023-03-13T04:56:41.195Z,6.55
2023-03-13T05:00:45.621Z,7.78
2023-03-13T05:04:50.578Z,6.75
2023-03-13T05:08:56.580Z,8.32
2023-03-13T05:12:59.737Z,7.78
2023-03-13T05:17:02.985Z,6.13
2023-03-13T05:21:06.849Z,7.07
2023-03-13T05:25:11.914Z,8.85
2023-03-13T05:29:15.180Z,7.50
2023-03-13T05:33:19.770Z,9.15
2023-03-13T05:37:23.043Z,8.57
2023-03-13T05:41:27.631Z,8.25
2023-03-13T05:45:31.231Z,7.63
2023-03-13T05:49:34.338Z,6.85
2023-03-13T05:53:39.201Z,7.90
2023-03-13T05:57:47.788Z,7.65
2023-03-13T06:01:51.132Z,7.88
2023-03-13T06:05:59.054Z,8.18
2023-03-13T06:10:02.424Z,8.50
2023-03-13T06:14:06.639Z,8.85
2023-03-13T06:18:09.841Z,10.05
2023-03-13T06:22:13.055Z,9.95
2023-03-13T06:26:16.798Z,10.05
2023-03-13T06:30:30.401Z,10.07
2023-03-13T06:34:33.686Z,10.32
2023-03-13T06:38:37.061Z,10.07
2023-03-13T06:42:40.130Z,11.32
2023-03-13T06:46:44.563Z,9.23
2023-03-13T06:50:47.964Z,9.05
2023-03-13T06:54:51.125Z,14.20
2023-03-13T06:58:54.372Z,10.43
2023-03-13T07:02:58.720Z,9.20
2023-03-13T07:07:01.903Z,10.05
2023-03-13T07:11:06.950Z,10.35
2023-03-13T07:15:11.732Z,8.73
2023-03-13T07:19:17.985Z,9.05
2023-03-13T07:23:21.463Z,9.60
2023-03-13T07:27:24.686Z,8.23
2023-03-13T07:31:28.376Z,8.85
2023-03-13T07:35:32.743Z,9.32
2023-03-13T07:39:36.480Z,9.55
2023-03-13T07:43:39.366Z,8.52
2023-03-13T07:47:42.517Z,9.65
2023-03-13T07:51:48.341Z,8.75
2023-03-13T07:55:59.461Z,7.68
2023-03-13T08:00:05.516Z,9.07
2023-03-13T08:04:08.867Z,10.48
2023-03-13T08:08:13.318Z,8.80
2023-03-13T08:12:16.536Z,8.27
2023-03-13T08:16:21.742Z,7.78
2023-03-13T08:20:25.025Z,7.28
2023-03-13T08:24:29.417Z,6.85
2023-03-13T08:28:32.651Z,6.45
2023-03-13T08:32:36.003Z,5.25
2023-03-13T08:36:39.670Z,5.72
2023-03-13T08:40:43.899Z,6.50
2023-03-13T08:44:46.835Z,6.20
2023-03-13T08:48:51.145Z,5.35
2023-03-13T08:52:54.322Z,5.90
2023-03-13T08:56:59.930Z,6.35
2023-03-13T09:01:04.788Z,5.13
2023-03-13T09:05:09.278Z,6.40
2023-03-13T09:09:13.320Z,6.53
2023-03-13T09:13:17.806Z,5.13
2023-03-13T09:17:21.562Z,5.68
2023-03-13T09:21:26.491Z,5.88
2023-03-13T09:25:29.868Z,5.32
2023-03-13T09:29:38.163Z,4.50
2023-03-13T09:37:50.214Z,5.43
2023-03-13T09:41:58.972Z,4.35
2023-03-13T09:46:07.910Z,4.93
2023-03-13T09:50:16.167Z,4.60
2023-03-13T09:54:26.515Z,5.57
2023-03-13T09:58:32.902Z,4.78
2023-03-13T10:02:38.714Z,4.93
2023-03-13T10:06:45.728Z,4.30
2023-03-13T10:10:55.444Z,4.30
2023-03-13T10:15:39.116Z,3.67
2023-03-13T10:19:44.819Z,2.67
2023-03-13T10:23:53.796Z,3.70
2023-03-13T10:27:58.637Z,3.50
2023-03-13T10:32:03.141Z,3.85
2023-03-13T10:36:10.547Z,3.30
2023-03-13T10:40:15.757Z,2.97
2023-03-13T10:44:21.326Z,3.53
2023-03-13T10:48:26.558Z,3.10
2023-03-13T10:52:35.362Z,2.55
2023-03-13T10:56:38.354Z,2.95
2023-03-13T11:00:42.973Z,2.00
2023-03-13T11:04:49.484Z,3.22
2023-03-13T11:09:00.884Z,2.65
2023-03-13T11:13:04.629Z,3.40
2023-03-13T11:17:16.548Z,3.15
2023-03-13T11:21:25.840Z,3.25
2023-03-13T11:25:37.761Z,3.22
2023-03-13T11:29:50.484Z,3.05
2023-03-13T11:33:59.562Z,3.00
2023-03-13T11:38:08.726Z,14.60
2023-03-13T11:42:34.448Z,4.93
2023-03-13T11:46:51.056Z,4.22
2023-03-13T11:51:00.195Z,3.03
2023-03-13T11:55:30.915Z,2.08
2023-03-13T11:59:43.941Z,1.80
2023-03-13T12:03:58.091Z,1.90
2023-03-13T12:08:05.263Z,3.30
2023-03-13T12:12:19.577Z,2.97
2023-03-13T12:16:32.191Z,1.98
2023-03-13T12:24:51.755Z,2.75
2023-03-13T12:29:07.668Z,2.10
2023-03-13T12:33:23.626Z,2.28
2023-03-13T12:37:35.746Z,2.40
2023-03-13T12:41:43.640Z,2.28
2023-03-13T12:46:04.248Z,2.55
2023-03-13T12:50:32.789Z,2.55
2023-03-13T12:54:48.959Z,1.83
2023-03-13T12:58:56.187Z,2.05
2023-03-13T13:03:17.938Z,2.38
2023-03-13T13:07:26.818Z,2.40
2023-03-13T13:11:58.141Z,2.75
2023-03-13T13:16:03.625Z,2.75
2023-03-13T13:20:38.146Z,3.17
2023-03-13T13:24:50.228Z,2.47
2023-03-13T13:28:54.031Z,2.63
2023-03-13T13:33:18.655Z,3.55
2023-03-13T13:37:30.831Z,3.67
2023-03-13T13:42:20.077Z,4.25
2023-03-13T13:46:29.413Z,3.75
2023-03-13T13:50:32.992Z,3.92
2023-03-13T13:54:56.772Z,3.05
2023-03-13T13:59:03.678Z,2.13
2023-03-13T14:03:20.686Z,2.65
2023-03-13T14:07:30.794Z,3.08
2023-03-13T14:11:38.459Z,3.13
2023-03-13T14:15:45.490Z,2.60
2023-03-13T14:19:51.212Z,2.58
2023-03-13T14:23:54.665Z,2.35
2023-03-13T14:27:58.133Z,2.08
2023-03-13T14:32:01.915Z,2.78
2023-03-13T14:36:07.569Z,2.00
2023-03-13T14:40:20.607Z,1.63
2023-03-13T14:44:26.505Z,2.30
2023-03-13T14:48:32.906Z,2.10
2023-03-13T14:52:40.236Z,2.08
2023-03-13T14:56:43.894Z,1.45
2023-03-13T15:00:49.078Z,1.83
2023-03-13T15:04:59.546Z,1.70
2023-03-13T15:09:20.447Z,1.70
2023-03-13T15:13:26.269Z,1.10
2023-03-13T15:17:30.394Z,1.38
2023-03-13T15:21:35.733Z,1.60
2023-03-13T15:25:41.143Z,2.08
2023-03-13T15:29:44.801Z,1.63
2023-03-13T15:33:47.811Z,1.60
2023-03-13T15:37:51.008Z,1.25
2023-03-13T15:41:56.397Z,1.20
2023-03-13T15:46:00.014Z,1.10
2023-03-13T15:50:03.056Z,1.60
2023-03-13T15:54:06.688Z,1.30
2023-03-13T15:58:13.457Z,1.50
2023-03-13T16:02:19.048Z,1.15
2023-03-13T16:06:31.251Z,0.95
2023-03-13T16:10:35.310Z,0.95
2023-03-13T16:14:40.893Z,0.73
2023-03-13T16:18:44.032Z,1.60
2023-03-13T16:22:47.950Z,1.05
2023-03-13T16:26:51.202Z,1.67
2023-03-13T16:30:57.451Z,2.00
2023-03-13T16:35:00.849Z,1.35
2023-03-13T16:39:09.429Z,2.10
2023-03-13T16:43:14.005Z,1.85
2023-03-13T16:47:23.513Z,1.70
2023-03-13T16:51:28.709Z,1.67
2023-03-13T16:55:37.007Z,1.30
2023-03-13T16:59:40.564Z,1.45
2023-03-13T17:03:44.861Z,1.35
2023-03-13T17:07:50.257Z,0.90
2023-03-13T17:11:53.659Z,1.30
2023-03-13T17:15:57.101Z,0.60
2023-03-13T17:20:01.969Z,1.23
2023-03-13T17:24:07.597Z,1.35
2023-03-13T17:28:14.515Z,1.20
2023-03-13T17:32:18.007Z,1.10
2023-03-13T17:36:24.817Z,0.90
2023-03-13T17:40:31.471Z,1.10
2023-03-13T17:44:34.902Z,1.10
2023-03-13T17:48:38.324Z,1.00
2023-03-13T17:52:43.040Z,1.27
2023-03-13T17:56:47.021Z,1.90
2023-03-13T18:00:50.996Z,1.42
2023-03-13T18:04:55.071Z,1.40
2023-03-13T18:09:08.845Z,1.88
2023-03-13T18:13:12.237Z,1.17
2023-03-13T18:17:17.637Z,1.50
2023-03-13T18:21:21.511Z,1.83
2023-03-13T18:25:26.251Z,1.25
2023-03-13T18:29:29.873Z,2.20
2023-03-13T18:33:32.877Z,2.00
2023-03-13T18:37:36.628Z,1.73
2023-03-13T18:41:41.452Z,1.42
2023-03-13T18:45:44.543Z,1.48
2023-03-13T18:49:49.409Z,1.40
2023-03-13T18:53:53.098Z,0.95
2023-03-13T18:57:58.538Z,0.82
2023-03-13T19:02:02.031Z,2.38
2023-03-13T19:06:17.864Z,2.67
2023-03-13T19:10:24.706Z,2.22
2023-03-13T19:14:29.470Z,2.53
2023-03-13T19:18:33.081Z,2.25
2023-03-13T19:22:36.089Z,2.80
2023-03-13T19:26:41.711Z,2.42
2023-03-13T19:31:04.461Z,2.60
2023-03-13T19:35:08.632Z,2.10
2023-03-13T19:39:15.518Z,2.00
2023-03-13T19:43:18.399Z,2.17
2023-03-13T19:47:23.374Z,2.10
2023-03-13T19:51:28.925Z,2.38
2023-03-13T19:55:32.181Z,1.38
2023-03-13T19:59:38.969Z,1.63
2023-03-13T20:03:44.600Z,1.15
2023-03-13T20:07:49.387Z,1.65
2023-03-13T20:11:52.773Z,0.93
2023-03-13T20:15:55.801Z,1.55
2023-03-13T20:20:02.048Z,1.20
2023-03-13T20:24:05.573Z,1.13
2023-03-13T20:28:09.249Z,1.77
2023-03-13T20:32:13.442Z,0.95
2023-03-13T20:36:20.211Z,1.70
2023-03-13T20:40:23.180Z,1.40
2023-03-13T20:44:26.520Z,1.63
2023-03-13T20:48:30.220Z,1.40
2023-03-13T20:52:34.833Z,1.67
2023-03-13T20:56:41.341Z,1.88
2023-03-13T21:00:45.157Z,1.17
2023-03-13T21:04:48.166Z,2.03
2023-03-13T21:08:52.782Z,1.38
2023-03-13T21:12:56.285Z,1.10
2023-03-13T21:16:59.444Z,1.40
2023-03-13T21:21:05.957Z,1.60
2023-03-13T21:25:13.403Z,1.63
2023-03-13T21:29:16.256Z,1.00
2023-03-13T21:33:22.377Z,1.65
2023-03-13T21:41:31.035Z,1.30
2023-03-13T21:45:34.711Z,1.48
2023-03-13T21:49:37.838Z,1.27
2023-03-13T21:53:42.290Z,1.40
2023-03-13T21:57:46.957Z,1.58
2023-03-13T22:01:50.154Z,1.40
2023-03-13T22:05:53.630Z,1.23
2023-03-13T22:09:56.787Z,1.33
2023-03-13T22:14:01.655Z,0.90
2023-03-13T22:18:05.018Z,1.27
2023-03-13T22:22:08.585Z,1.05
2023-03-13T22:26:12.436Z,1.27
2023-03-13T22:30:17.182Z,1.10
2023-03-13T22:34:20.189Z,1.15
2023-03-13T22:38:24.225Z,1.50
2023-03-13T22:42:27.111Z,1.30
2023-03-13T22:46:31.869Z,1.38
2023-03-13T22:50:35.238Z,1.77
2023-03-13T22:54:38.568Z,1.40
2023-03-13T22:58:42.442Z,1.90
2023-03-13T23:02:47.214Z,1.70
2023-03-13T23:06:50.346Z,1.73
2023-03-13T23:10:53.888Z,2.17
2023-03-13T23:14:59.597Z,1.88
2023-03-13T23:19:05.247Z,1.73
2023-03-13T23:23:08.189Z,1.40
2023-03-13T23:27:11.635Z,1.73
2023-03-13T23:31:16.907Z,2.15
2023-03-13T23:35:22.379Z,2.10
2023-03-13T23:39:25.602Z,1.95
2023-03-13T23:43:28.852Z,2.30
2023-03-13T23:47:31.811Z,2.58
2023-03-13T23:51:36.403Z,3.45
2023-03-13T23:55:41.829Z,2.67
2023-03-13T23:59:45.229Z,2.40
